»·PEaware :: N899M KSAC-KBFL

N899M :: KSAC-KBFL

FLIGHT INFORMATION

Flight Status: Arrived
Operator: Privately registered:
United States
More flights under this callsign
Pilot: Robert C. (30425)
Aircraft: Unknown
(EPIC)
More flights by this aircraft type
Origin: KSAC Sacramento Executive
United States
Destination: KBFL Meadows
United States
More flights between these airports :: More routes between these airports
Route: GALTS V23 LIN V459 TTE V165 IVECU
File this flight plan on PilotEdge
Remarks:
Altitude:
(Current/Filed)
9,000ft
Speed:
(Current/Filed)
225kts
Departed: 02-Oct-20 08:07 PM
Arrived: 02-Oct-20 09:23 PM
Distance/Time
Traveled:
218nm/1:15
Distance/Time
To Go:
Arrived

Flight Plot

Page will automatically refresh every two minutes.

Flight plan parsing failed; only flown route is shown


Map Options




Map Legend


Flown Route
Filed Route
Departure Airport
Arrival Airport
Navaid (VOR, NDB)
Fix

Horizontal Profiles

Position Reports

Time Latitude Longitude Heading Altitude Ground
Speed
02-Oct-20 19:44 38.520098 -121.492906 235 24ft 0kts
02-Oct-20 19:45 38.520098 -121.492906 235 24ft 0kts
02-Oct-20 19:46 38.520098 -121.492906 235 24ft 0kts
02-Oct-20 19:47 38.520098 -121.492906 235 24ft 0kts
02-Oct-20 19:48 38.520098 -121.492906 235 24ft 0kts
02-Oct-20 19:49 38.520098 -121.492906 235 24ft 0kts
02-Oct-20 19:50 38.520098 -121.492906 235 24ft 0kts
02-Oct-20 19:51 38.520098 -121.492906 235 24ft 0kts
02-Oct-20 19:52 38.520098 -121.492906 235 24ft 0kts
02-Oct-20 19:53 38.520098 -121.492906 235 24ft 0kts
02-Oct-20 19:54 38.520098 -121.492906 235 24ft 0kts
02-Oct-20 19:55 38.520098 -121.492906 235 24ft 0kts
02-Oct-20 19:56 38.520098 -121.492906 235 24ft 0kts
02-Oct-20 19:57 38.520098 -121.492906 235 24ft 0kts
02-Oct-20 19:58 38.520098 -121.492906 235 24ft 0kts
02-Oct-20 19:59 38.520006 -121.493030 222 24ft 0kts
02-Oct-20 20:00 38.519569 -121.492850 104 24ft 4kts
02-Oct-20 20:01 38.519368 -121.491564 99 23ft 6kts
02-Oct-20 20:02 38.519225 -121.490480 99 23ft 0kts
02-Oct-20 20:03 38.519225 -121.490480 99 23ft 0kts
02-Oct-20 20:04 38.519222 -121.490457 100 23ft 0kts
02-Oct-20 20:05 38.518599 -121.489590 208 23ft 1kts
02-Oct-20 20:06 38.493772 -121.509111 210 525ft 174kts
02-Oct-20 20:07 38.447357 -121.481529 134 1216ft 235kts
02-Oct-20 20:08 38.401098 -121.419606 133 2002ft 254kts
02-Oct-20 20:09 38.347782 -121.358141 153 2002ft 263kts
02-Oct-20 20:10 38.288023 -121.308095 146 2741ft 250kts
02-Oct-20 20:11 38.238980 -121.246480 130 4048ft 249kts
02-Oct-20 20:12 38.193734 -121.179585 129 5350ft 250kts
02-Oct-20 20:13 38.148181 -121.112246 129 6652ft 252kts
02-Oct-20 20:14 38.102209 -121.044426 129 7951ft 256kts
02-Oct-20 20:15 38.057485 -120.971513 122 8668ft 270kts
02-Oct-20 20:16 38.014528 -120.891240 122 9059ft 281kts
02-Oct-20 20:17 37.972337 -120.812468 122 9057ft 256kts
02-Oct-20 20:18 37.933203 -120.739522 122 9074ft 250kts
02-Oct-20 20:19 37.893736 -120.666143 122 9071ft 252kts
02-Oct-20 20:20 37.854012 -120.592522 122 9052ft 254kts
02-Oct-20 20:21 37.814022 -120.518685 122 9038ft 254kts
02-Oct-20 20:22 37.774020 -120.444981 122 9025ft 255kts
02-Oct-20 20:23 37.733802 -120.370891 122 9017ft 255kts
02-Oct-20 20:24 37.693724 -120.297217 123 9017ft 254kts
02-Oct-20 20:25 37.653531 -120.223498 123 9017ft 254kts
02-Oct-20 20:26 37.611472 -120.151835 135 9021ft 255kts
02-Oct-20 20:27 37.558222 -120.092079 137 9012ft 257kts
02-Oct-20 20:28 37.504507 -120.032816 138 9013ft 257kts
02-Oct-20 20:29 37.450511 -119.973382 138 9017ft 258kts
02-Oct-20 20:31 37.396483 -119.914028 138 9018ft 258kts
02-Oct-20 20:32 37.342894 -119.855276 138 9017ft 253kts
02-Oct-20 20:33 37.290282 -119.797703 138 9018ft 250kts
02-Oct-20 20:34 37.237923 -119.740560 138 9018ft 249kts
02-Oct-20 20:35 37.185705 -119.683683 137 9018ft 248kts
02-Oct-20 20:36 37.133512 -119.626939 137 9018ft 248kts
02-Oct-20 20:37 37.075910 -119.581684 156 9019ft 248kts
02-Oct-20 20:38 37.011823 -119.550031 157 8991ft 247kts
02-Oct-20 20:39 36.947959 -119.518805 156 8990ft 245kts
02-Oct-20 20:40 36.884472 -119.487831 156 8989ft 244kts
02-Oct-20 20:41 36.821370 -119.457102 156 8989ft 244kts
02-Oct-20 20:42 36.757626 -119.426111 156 8990ft 247kts
02-Oct-20 20:43 36.693269 -119.394881 156 8990ft 249kts
02-Oct-20 20:44 36.628684 -119.363596 157 8990ft 249kts
02-Oct-20 20:45 36.563888 -119.332265 157 8991ft 249kts
02-Oct-20 20:46 36.499274 -119.301075 157 8990ft 250kts
02-Oct-20 20:47 36.434469 -119.269849 157 8991ft 249kts
02-Oct-20 20:47 36.380387 -119.243833 157 8991ft 249kts
02-Oct-20 20:48 36.315656 -119.212748 157 8993ft 249kts
02-Oct-20 20:50 36.240937 -119.176956 157 8993ft 242kts
02-Oct-20 20:50 36.189318 -119.152255 157 8994ft 236kts
02-Oct-20 20:51 36.128358 -119.122911 157 8997ft 234kts
02-Oct-20 20:53 36.060003 -119.090369 159 8996ft 218kts
02-Oct-20 20:53 36.013616 -119.068534 157 8997ft 209kts
02-Oct-20 20:54 35.960508 -119.043158 157 8997ft 200kts
02-Oct-20 20:55 35.909618 -119.022670 182 9004ft 190kts
02-Oct-20 20:56 35.857788 -119.030699 186 8998ft 186kts
02-Oct-20 20:57 35.806989 -119.039802 186 8999ft 183kts
02-Oct-20 20:58 35.756771 -119.048794 186 8999ft 182kts
02-Oct-20 20:59 35.707127 -119.057470 186 8997ft 177kts
02-Oct-20 21:00 35.659053 -119.064601 178 8999ft 171kts
02-Oct-20 21:01 35.611911 -119.063401 177 8995ft 167kts
02-Oct-20 21:02 35.565985 -119.061926 176 9002ft 163kts
02-Oct-20 21:03 35.520879 -119.060344 176 9000ft 161kts
02-Oct-20 21:04 35.476406 -119.058768 176 8993ft 160kts
02-Oct-20 21:05 35.430577 -119.057133 176 8222ft 165kts
02-Oct-20 21:06 35.384199 -119.055409 176 7235ft 169kts
02-Oct-20 21:07 35.337032 -119.053566 176 6239ft 170kts
02-Oct-20 21:08 35.288998 -119.051565 176 4981ft 175kts
02-Oct-20 21:09 35.241102 -119.049486 176 3998ft 163kts
02-Oct-20 21:10 35.206703 -119.028337 102 4006ft 152kts
02-Oct-20 21:11 35.196545 -118.977719 102 4001ft 154kts
02-Oct-20 21:12 35.190842 -118.926956 62 4012ft 152kts
02-Oct-20 21:13 35.211781 -118.877535 62 3134ft 166kts
02-Oct-20 21:14 35.236769 -118.837647 358 2488ft 141kts
02-Oct-20 21:15 35.272834 -118.863784 320 2503ft 160kts
02-Oct-20 21:16 35.305648 -118.901786 317 2500ft 164kts
02-Oct-20 21:17 35.338288 -118.940986 317 2498ft 163kts
02-Oct-20 21:18 35.369515 -118.978586 317 2195ft 152kts
02-Oct-20 21:19 35.396581 -119.011223 317 1521ft 112kts
02-Oct-20 21:20 35.417064 -119.035900 316 929ft 102kts
02-Oct-20 21:21 35.434620 -119.056445 354 564ft 72kts
02-Oct-20 21:22 35.438128 -119.055988 9 506ft 0kts

Navigation Log

Ident Type
Flight plan parsing failed, navigation log unavailable